createdAt,value
2022-10-31T00:01:32.918Z,11.11
2022-10-31T00:03:59.558Z,11.15
2022-10-31T00:06:26.457Z,11.19
2022-10-31T00:08:55.318Z,11.19
2022-10-31T00:11:22.640Z,11.18
2022-10-31T00:13:49.398Z,11.20
2022-10-31T00:16:24.490Z,11.18
2022-10-31T00:18:59.227Z,11.21
2022-10-31T00:21:27.261Z,11.21
2022-10-31T00:23:54.191Z,11.21
2022-10-31T00:26:21.307Z,11.19
2022-10-31T00:28:50.210Z,11.21
2022-10-31T00:31:16.828Z,11.21
2022-10-31T00:33:43.872Z,11.13
2022-10-31T00:36:18.904Z,11.12
2022-10-31T00:38:46.867Z,11.17
2022-10-31T00:41:15.712Z,11.19
2022-10-31T00:43:43.501Z,11.21
2022-10-31T00:46:11.098Z,11.21
2022-10-31T00:48:37.713Z,11.18
2022-10-31T00:51:04.450Z,11.18
2022-10-31T00:53:31.036Z,11.17
2022-10-31T00:55:57.701Z,11.15
2022-10-31T00:58:24.314Z,11.20
2022-10-31T01:00:56.204Z,11.15
2022-10-31T01:03:29.612Z,11.11
2022-10-31T01:06:17.004Z,11.16
2022-10-31T01:08:44.120Z,11.18
2022-10-31T01:11:13.824Z,11.13
2022-10-31T01:13:40.513Z,11.11
2022-10-31T01:16:09.003Z,11.13
2022-10-31T01:18:36.079Z,11.15
2022-10-31T01:21:08.864Z,11.23
2022-10-31T01:23:36.494Z,11.17
2022-10-31T01:26:08.556Z,11.18
2022-10-31T01:28:37.625Z,11.17
2022-10-31T01:31:06.718Z,11.19
2022-10-31T01:33:33.424Z,11.17
2022-10-31T01:36:00.032Z,11.18
2022-10-31T01:38:27.056Z,11.17
2022-10-31T01:40:53.999Z,11.13
2022-10-31T01:45:54.154Z,11.14
2022-10-31T01:48:24.632Z,11.10
2022-10-31T01:50:55.080Z,11.02
2022-10-31T01:53:25.965Z,11.00
2022-10-31T01:55:54.065Z,11.00
2022-10-31T01:58:28.834Z,11.03
2022-10-31T02:01:04.861Z,11.01
2022-10-31T02:03:34.813Z,11.04
2022-10-31T02:06:01.530Z,11.10
2022-10-31T02:08:31.250Z,11.04
2022-10-31T02:11:00.305Z,11.04
2022-10-31T02:13:29.255Z,10.99
2022-10-31T02:16:04.361Z,10.97
2022-10-31T02:18:31.675Z,10.95
2022-10-31T02:21:03.950Z,10.93
2022-10-31T02:23:45.185Z,10.96
2022-10-31T02:26:17.339Z,10.97
2022-10-31T02:29:02.689Z,10.95
2022-10-31T02:31:54.698Z,10.89
2022-10-31T02:34:33.269Z,10.87
2022-10-31T02:37:07.976Z,10.91
2022-10-31T02:39:57.969Z,10.93
2022-10-31T02:42:47.758Z,10.89
2022-10-31T02:45:26.669Z,10.87
2022-10-31T02:47:57.388Z,10.84
2022-10-31T02:50:33.855Z,10.88
2022-10-31T02:53:02.012Z,10.87
2022-10-31T02:55:28.719Z,10.91
2022-10-31T02:58:01.758Z,10.96
2022-10-31T03:00:38.204Z,10.92
2022-10-31T03:03:27.617Z,10.97
2022-10-31T03:06:15.563Z,11.03
2022-10-31T03:08:56.075Z,10.98
2022-10-31T03:11:30.762Z,10.98
2022-10-31T03:14:10.367Z,11.03
2022-10-31T03:16:52.427Z,11.02
2022-10-31T03:19:32.703Z,10.97
2022-10-31T03:22:04.391Z,10.98
2022-10-31T03:24:36.341Z,10.93
2022-10-31T03:27:05.439Z,10.91
2022-10-31T03:29:37.920Z,10.93
2022-10-31T03:32:10.542Z,10.91
2022-10-31T03:34:40.857Z,10.90
2022-10-31T03:37:10.198Z,10.88
2022-10-31T03:39:40.173Z,10.91
2022-10-31T03:42:14.102Z,10.94
2022-10-31T03:44:49.807Z,10.91
2022-10-31T03:47:16.891Z,10.91
2022-10-31T03:49:43.915Z,10.91
2022-10-31T03:52:29.962Z,10.96
2022-10-31T03:55:11.347Z,10.98
2022-10-31T03:57:37.916Z,11.00
2022-10-31T04:00:12.162Z,11.02
2022-10-31T04:02:44.097Z,10.94
2022-10-31T04:05:14.030Z,10.90
2022-10-31T04:07:46.857Z,10.87
2022-10-31T04:10:16.621Z,10.96
2022-10-31T04:12:50.278Z,10.93
2022-10-31T04:15:17.128Z,10.94
2022-10-31T04:17:59.490Z,10.90
2022-10-31T04:20:40.561Z,10.82
2022-10-31T04:23:18.616Z,10.85
2022-10-31T04:25:45.270Z,10.87
2022-10-31T04:28:11.994Z,10.96
2022-10-31T04:30:38.573Z,10.97
2022-10-31T04:33:05.221Z,10.95
2022-10-31T04:35:31.949Z,10.88
2022-10-31T04:37:58.618Z,10.87
2022-10-31T04:40:25.298Z,10.91
2022-10-31T04:42:52.111Z,10.93
2022-10-31T04:45:27.753Z,10.93
2022-10-31T04:47:54.353Z,10.95
2022-10-31T04:50:21.068Z,10.94
2022-10-31T04:52:47.966Z,10.96
2022-10-31T04:55:15.178Z,10.96
2022-10-31T04:57:47.260Z,11.01
2022-10-31T05:00:16.025Z,11.01
2022-10-31T05:02:49.748Z,10.99
2022-10-31T05:05:18.776Z,10.98
2022-10-31T05:07:48.058Z,11.00
2022-10-31T05:10:18.324Z,10.99
2022-10-31T05:12:57.836Z,10.92
2022-10-31T05:15:26.463Z,10.91
2022-10-31T05:17:53.796Z,10.96
2022-10-31T05:20:22.654Z,10.94
2022-10-31T05:22:51.562Z,10.95
2022-10-31T05:25:20.137Z,11.00
2022-10-31T05:27:49.080Z,11.03
2022-10-31T05:30:18.795Z,10.98
2022-10-31T05:32:48.621Z,10.98
2022-10-31T05:35:18.105Z,11.01
2022-10-31T05:37:44.776Z,10.97
2022-10-31T05:40:13.437Z,10.98
2022-10-31T05:42:41.317Z,11.00
2022-10-31T05:45:10.394Z,10.96
2022-10-31T05:47:37.149Z,10.97
2022-10-31T05:50:04.369Z,11.00
2022-10-31T05:52:31.118Z,11.01
2022-10-31T05:54:57.740Z,11.03
2022-10-31T05:57:24.708Z,11.07
2022-10-31T05:59:55.052Z,11.07
2022-10-31T06:02:22.562Z,11.08
2022-10-31T06:04:49.436Z,11.09
2022-10-31T06:07:16.098Z,11.08
2022-10-31T06:09:42.847Z,11.00
2022-10-31T06:12:09.659Z,10.91
2022-10-31T06:14:36.339Z,10.93
2022-10-31T06:17:04.196Z,10.91
2022-10-31T06:19:30.854Z,10.97
2022-10-31T06:21:57.500Z,11.01
2022-10-31T06:24:24.269Z,10.86
2022-10-31T06:26:50.908Z,10.88
2022-10-31T06:29:17.644Z,10.94
2022-10-31T06:31:44.903Z,11.09
2022-10-31T06:34:11.660Z,11.11
2022-10-31T06:36:38.298Z,11.09
2022-10-31T06:39:04.910Z,11.07
2022-10-31T06:41:31.495Z,11.02
2022-10-31T06:43:58.126Z,10.97
2022-10-31T06:46:24.826Z,11.02
2022-10-31T06:48:51.455Z,10.99
2022-10-31T06:51:18.069Z,11.00
2022-10-31T06:53:44.783Z,11.04
2022-10-31T06:56:11.497Z,10.90
2022-10-31T06:58:38.125Z,10.78
2022-10-31T07:01:04.867Z,10.77
2022-10-31T07:03:31.739Z,10.76
2022-10-31T07:05:58.631Z,10.88
2022-10-31T07:08:25.905Z,11.00
2022-10-31T07:10:57.482Z,11.10
2022-10-31T07:13:28.176Z,11.12
2022-10-31T07:15:56.816Z,11.11
2022-10-31T07:18:23.421Z,11.06
2022-10-31T07:20:50.099Z,10.98
2022-10-31T07:23:16.847Z,10.96
2022-10-31T07:25:43.538Z,10.97
2022-10-31T07:28:10.768Z,10.97
2022-10-31T07:30:38.888Z,10.95
2022-10-31T07:33:06.126Z,11.01
2022-10-31T07:35:33.174Z,11.02
2022-10-31T07:38:09.413Z,11.01
2022-10-31T07:40:36.078Z,11.08
2022-10-31T07:43:03.405Z,11.06
2022-10-31T07:45:30.247Z,11.05
2022-10-31T07:47:57.215Z,11.09
2022-10-31T07:50:28.812Z,11.11
2022-10-31T07:53:07.260Z,11.21
2022-10-31T07:55:34.525Z,11.17
2022-10-31T07:58:09.334Z,11.16
2022-10-31T08:00:37.622Z,11.28
2022-10-31T08:03:13.981Z,11.33
2022-10-31T08:05:42.194Z,11.19
2022-10-31T08:08:09.765Z,11.23
2022-10-31T08:10:37.037Z,11.28
2022-10-31T08:13:12.262Z,11.25
2022-10-31T08:15:40.981Z,11.29
2022-10-31T08:18:14.457Z,11.38
2022-10-31T08:20:42.426Z,11.50
2022-10-31T08:23:11.214Z,11.57
2022-10-31T08:25:39.266Z,11.62
2022-10-31T08:28:07.707Z,11.66
2022-10-31T08:30:36.742Z,11.62
2022-10-31T08:33:06.345Z,11.67
2022-10-31T08:35:34.070Z,11.68
2022-10-31T08:38:01.396Z,11.66
2022-10-31T08:40:30.347Z,11.66
2022-10-31T08:43:06.581Z,11.65
2022-10-31T08:45:34.842Z,11.72
2022-10-31T08:48:04.608Z,11.69
2022-10-31T08:50:33.426Z,11.69
2022-10-31T08:53:05.677Z,11.68
2022-10-31T08:55:35.005Z,11.70
2022-10-31T08:58:01.930Z,11.74
2022-10-31T09:00:28.987Z,11.75
2022-10-31T09:03:00.127Z,11.81
2022-10-31T09:05:27.016Z,11.78
2022-10-31T09:07:59.168Z,11.79
2022-10-31T09:10:27.436Z,11.82
2022-10-31T09:13:02.785Z,11.82
2022-10-31T09:15:29.832Z,11.82
2022-10-31T09:17:57.057Z,11.77
2022-10-31T09:20:24.054Z,11.80
2022-10-31T09:22:59.927Z,11.80
2022-10-31T09:25:27.564Z,11.90
2022-10-31T09:28:02.258Z,11.93
2022-10-31T09:30:33.054Z,12.00
2022-10-31T09:33:10.740Z,12.22
2022-10-31T09:35:41.153Z,12.23
2022-10-31T09:38:12.609Z,12.25
2022-10-31T09:40:42.328Z,12.26
2022-10-31T09:43:25.490Z,12.35
2022-10-31T09:46:05.550Z,12.36
2022-10-31T09:49:17.139Z,12.37
2022-10-31T09:51:53.185Z,12.28
2022-10-31T09:54:43.987Z,12.50
2022-10-31T09:57:17.331Z,12.52
2022-10-31T09:59:46.606Z,12.51
2022-10-31T10:02:22.783Z,12.60
2022-10-31T10:05:02.744Z,12.62
2022-10-31T10:07:48.099Z,12.69
2022-10-31T10:10:28.825Z,12.75
2022-10-31T10:13:21.374Z,12.94
2022-10-31T10:16:00.608Z,13.04
2022-10-31T10:18:41.448Z,13.00
2022-10-31T10:21:22.910Z,13.08
2022-10-31T10:24:05.175Z,13.13
2022-10-31T10:26:38.444Z,13.16
2022-10-31T10:29:34.206Z,13.18
2022-10-31T10:32:11.081Z,13.16
2022-10-31T10:34:44.873Z,13.16
2022-10-31T10:37:38.541Z,13.26
2022-10-31T10:40:26.808Z,13.36
2022-10-31T10:43:23.726Z,13.25
2022-10-31T10:46:31.087Z,13.37
2022-10-31T10:49:12.587Z,13.38
2022-10-31T10:55:09.274Z,13.39
2022-10-31T10:57:58.013Z,13.43
2022-10-31T11:00:33.805Z,13.44
2022-10-31T11:03:01.922Z,13.48
2022-10-31T11:05:35.815Z,13.55
2022-10-31T11:08:03.191Z,13.65
2022-10-31T11:10:30.650Z,13.53
2022-10-31T11:13:21.645Z,13.47
2022-10-31T11:16:29.754Z,13.47
2022-10-31T11:19:08.513Z,13.55
2022-10-31T11:21:35.885Z,13.56
2022-10-31T11:24:08.444Z,13.60
2022-10-31T11:26:36.297Z,13.63
2022-10-31T11:29:06.549Z,13.60
2022-10-31T11:31:35.721Z,13.80
2022-10-31T11:34:05.847Z,13.94
2022-10-31T11:36:38.903Z,13.88
2022-10-31T11:39:16.006Z,13.92
2022-10-31T11:41:45.657Z,14.10
2022-10-31T11:44:26.849Z,14.28
2022-10-31T11:47:00.124Z,14.31
2022-10-31T11:49:36.189Z,14.26
2022-10-31T11:52:07.631Z,14.35
2022-10-31T11:54:39.566Z,14.09
2022-10-31T11:57:25.062Z,13.96
2022-10-31T11:59:52.471Z,13.86
2022-10-31T12:02:20.353Z,14.02
2022-10-31T12:04:51.614Z,13.98
2022-10-31T12:07:18.189Z,13.88
2022-10-31T12:09:44.727Z,13.79
2022-10-31T12:12:49.752Z,13.82
2022-10-31T12:15:33.999Z,13.77
2022-10-31T12:18:03.502Z,13.65
2022-10-31T12:20:42.897Z,13.67
2022-10-31T12:23:41.345Z,13.52
2022-10-31T12:26:18.797Z,13.57
2022-10-31T12:28:55.334Z,13.67
2022-10-31T12:32:20.719Z,13.64
2022-10-31T12:35:15.555Z,13.81
2022-10-31T12:37:45.129Z,13.86
2022-10-31T12:40:51.424Z,14.01
2022-10-31T12:43:43.844Z,13.92
2022-10-31T12:46:36.644Z,13.90
2022-10-31T12:49:17.524Z,13.96
2022-10-31T12:52:11.967Z,13.85
2022-10-31T12:54:50.696Z,13.86
2022-10-31T12:57:37.270Z,13.57
2022-10-31T13:00:17.163Z,13.66
2022-10-31T13:03:10.276Z,13.78
2022-10-31T13:05:47.944Z,13.65
2022-10-31T13:08:23.571Z,13.62
2022-10-31T13:11:05.183Z,13.71
2022-10-31T13:14:02.438Z,13.72
2022-10-31T13:16:37.824Z,13.59
2022-10-31T13:19:17.805Z,13.80
2022-10-31T13:22:11.597Z,13.71
2022-10-31T13:24:42.662Z,13.57
2022-10-31T13:27:22.347Z,13.48
2022-10-31T13:29:55.099Z,13.63
2022-10-31T13:32:22.028Z,13.84
2022-10-31T13:34:53.639Z,13.90
2022-10-31T13:37:44.538Z,13.78
2022-10-31T13:40:28.495Z,13.68
2022-10-31T13:43:10.589Z,13.59
2022-10-31T13:46:19.874Z,13.60
2022-10-31T13:48:46.600Z,13.80
2022-10-31T13:51:13.339Z,13.77
2022-10-31T13:53:58.948Z,13.75
2022-10-31T13:56:34.561Z,13.61
2022-10-31T13:59:10.140Z,13.63
2022-10-31T14:01:39.730Z,13.69
2022-10-31T14:04:23.903Z,13.87
2022-10-31T14:07:12.589Z,14.12
2022-10-31T14:09:48.613Z,14.27
2022-10-31T14:12:43.414Z,14.43
2022-10-31T14:15:19.321Z,14.23
2022-10-31T14:17:48.580Z,14.37
2022-10-31T14:20:15.209Z,14.20
2022-10-31T14:22:43.060Z,14.16
2022-10-31T14:25:28.403Z,14.30
2022-10-31T14:27:55.442Z,14.45
2022-10-31T14:30:24.063Z,14.42
2022-10-31T14:32:52.150Z,14.27
2022-10-31T14:35:21.347Z,14.15
2022-10-31T14:37:51.128Z,13.95
2022-10-31T14:40:36.476Z,13.91
2022-10-31T14:43:21.708Z,13.79
2022-10-31T14:45:48.241Z,13.65
2022-10-31T14:48:20.639Z,13.49
2022-10-31T14:50:51.518Z,13.23
2022-10-31T14:53:21.061Z,13.14
2022-10-31T14:55:54.235Z,12.97
2022-10-31T14:58:38.061Z,12.93
2022-10-31T15:01:05.745Z,12.83
2022-10-31T15:03:44.525Z,12.69
2022-10-31T15:06:22.801Z,12.59
2022-10-31T15:08:55.887Z,12.60
2022-10-31T15:11:24.388Z,12.49
2022-10-31T15:13:52.502Z,12.49
2022-10-31T15:16:23.993Z,12.32
2022-10-31T15:19:21.598Z,12.28
2022-10-31T15:21:48.328Z,12.14
2022-10-31T15:24:20.565Z,12.08
2022-10-31T15:26:48.752Z,12.13
2022-10-31T15:29:19.638Z,12.09
2022-10-31T15:31:53.559Z,12.08
2022-10-31T15:34:39.937Z,11.97
2022-10-31T15:37:22.255Z,11.90
2022-10-31T15:39:50.247Z,11.84
2022-10-31T15:42:20.244Z,11.79
2022-10-31T15:44:52.410Z,11.72
2022-10-31T15:47:21.985Z,11.71
2022-10-31T15:49:51.256Z,11.76
2022-10-31T15:52:47.937Z,11.60
2022-10-31T15:55:16.549Z,11.55
2022-10-31T15:57:56.068Z,11.47
2022-10-31T16:00:25.493Z,11.42
2022-10-31T16:03:12.306Z,11.37
2022-10-31T16:05:47.458Z,11.19
2022-10-31T16:08:29.276Z,11.11
2022-10-31T16:11:00.495Z,11.03
2022-10-31T16:13:31.878Z,10.92
2022-10-31T16:16:33.515Z,10.89
2022-10-31T16:18:51.104Z,10.80
2022-10-31T16:21:27.448Z,10.75
2022-10-31T16:23:59.057Z,10.71
2022-10-31T16:26:26.924Z,10.66
2022-10-31T16:29:04.865Z,10.67
2022-10-31T16:31:39.300Z,10.63
2022-10-31T16:34:26.923Z,10.64
2022-10-31T16:36:54.586Z,10.64
2022-10-31T16:39:21.428Z,10.63
2022-10-31T16:41:51.735Z,10.61
2022-10-31T16:44:27.150Z,10.49
2022-10-31T16:47:17.022Z,10.54
2022-10-31T16:49:45.126Z,10.43
2022-10-31T16:52:11.975Z,10.34
2022-10-31T16:54:38.545Z,10.30
2022-10-31T16:57:07.343Z,10.29
2022-10-31T16:59:35.180Z,10.27
2022-10-31T17:02:04.124Z,10.31
2022-10-31T17:04:30.881Z,10.24
2022-10-31T17:06:57.532Z,10.06
2022-10-31T17:12:06.757Z,10.05
2022-10-31T17:14:35.099Z,10.09
2022-10-31T17:17:06.088Z,10.10
2022-10-31T17:19:33.871Z,9.93
2022-10-31T17:22:02.794Z,9.97
2022-10-31T17:24:29.400Z,9.92
2022-10-31T17:26:56.127Z,9.82
2022-10-31T17:29:25.860Z,9.71
2022-10-31T17:31:52.447Z,9.70
2022-10-31T17:34:19.624Z,9.87
2022-10-31T17:36:51.595Z,9.96
2022-10-31T17:39:20.976Z,10.06
2022-10-31T17:41:51.264Z,10.16
2022-10-31T17:44:19.011Z,10.17
2022-10-31T17:46:45.882Z,10.06
2022-10-31T17:49:12.986Z,10.00
2022-10-31T17:51:39.633Z,10.00
2022-10-31T17:54:07.487Z,9.99
2022-10-31T17:56:34.128Z,9.88
2022-10-31T17:59:03.715Z,9.94
2022-10-31T18:01:34.692Z,10.09
2022-10-31T18:04:01.451Z,10.06
2022-10-31T18:06:28.102Z,10.08
2022-10-31T18:09:01.255Z,10.06
2022-10-31T18:11:29.256Z,10.04
2022-10-31T18:13:57.570Z,10.14
2022-10-31T18:16:27.623Z,10.05
2022-10-31T18:18:56.599Z,10.14
2022-10-31T18:21:23.209Z,10.05
2022-10-31T18:23:54.551Z,10.07
2022-10-31T18:26:21.497Z,10.16
2022-10-31T18:28:48.154Z,10.12
2022-10-31T18:31:14.851Z,10.07
2022-10-31T18:33:42.729Z,10.09
2022-10-31T18:36:11.278Z,10.16
2022-10-31T18:38:42.865Z,10.10
2022-10-31T18:41:09.587Z,10.13
2022-10-31T18:43:36.433Z,10.26
2022-10-31T18:46:05.092Z,10.31
2022-10-31T18:48:32.400Z,10.33
2022-10-31T18:51:06.302Z,10.29
2022-10-31T18:53:33.459Z,10.14
2022-10-31T18:56:06.597Z,10.17
2022-10-31T18:58:33.292Z,10.17
2022-10-31T19:01:00.670Z,10.27
2022-10-31T19:03:27.755Z,10.34
2022-10-31T19:05:55.816Z,10.41
2022-10-31T19:08:24.106Z,10.23
2022-10-31T19:10:53.717Z,10.14
2022-10-31T19:13:21.903Z,10.13
2022-10-31T19:15:50.012Z,10.23
2022-10-31T19:18:21.896Z,10.29
2022-10-31T19:20:53.626Z,10.21
2022-10-31T19:23:22.791Z,10.21
2022-10-31T19:25:52.201Z,10.21
2022-10-31T19:28:21.315Z,10.19
2022-10-31T19:30:55.266Z,10.20
2022-10-31T19:33:25.414Z,10.15
2022-10-31T19:36:02.408Z,10.25
2022-10-31T19:38:30.929Z,10.25
2022-10-31T19:41:01.206Z,10.26
2022-10-31T19:43:30.095Z,10.25
2022-10-31T19:45:58.649Z,10.17
2022-10-31T19:48:26.748Z,10.24
2022-10-31T19:51:04.805Z,10.28
2022-10-31T19:53:35.183Z,10.35
2022-10-31T19:56:16.472Z,10.41
2022-10-31T19:58:46.595Z,10.40
2022-10-31T20:01:19.547Z,10.37
2022-10-31T20:03:46.824Z,10.44
2022-10-31T20:06:24.961Z,10.36
2022-10-31T20:08:53.167Z,10.33
2022-10-31T20:11:19.874Z,10.34
2022-10-31T20:13:48.723Z,10.43
2022-10-31T20:16:19.442Z,10.53
2022-10-31T20:18:49.364Z,10.50
2022-10-31T20:21:27.605Z,10.55
2022-10-31T20:24:02.542Z,10.53
2022-10-31T20:26:31.410Z,10.52
2022-10-31T20:29:02.142Z,10.56
2022-10-31T20:31:33.599Z,10.61
2022-10-31T20:34:00.834Z,10.57
2022-10-31T20:36:31.384Z,10.49
2022-10-31T20:38:58.914Z,10.53
2022-10-31T20:41:26.228Z,10.48
2022-10-31T20:43:56.081Z,10.47
2022-10-31T20:46:25.124Z,10.51
2022-10-31T20:48:57.020Z,10.49
2022-10-31T20:51:28.227Z,10.49
2022-10-31T20:53:57.041Z,10.47
2022-10-31T20:56:25.953Z,10.50
2022-10-31T20:58:54.345Z,10.47
2022-10-31T21:01:27.362Z,10.40
2022-10-31T21:03:54.868Z,10.41
2022-10-31T21:06:23.348Z,10.56
2022-10-31T21:08:50.861Z,10.56
2022-10-31T21:11:20.895Z,10.52
2022-10-31T21:13:48.750Z,10.49
2022-10-31T21:16:21.186Z,10.42
2022-10-31T21:18:49.390Z,10.41
2022-10-31T21:21:19.714Z,10.37
2022-10-31T21:23:47.063Z,10.37
2022-10-31T21:26:19.404Z,10.39
2022-10-31T21:28:46.091Z,10.38
2022-10-31T21:31:15.537Z,10.35
2022-10-31T21:33:45.282Z,10.34
2022-10-31T21:36:12.660Z,10.36
2022-10-31T21:38:41.338Z,10.40
2022-10-31T21:41:11.867Z,10.38
2022-10-31T21:43:46.393Z,10.39
2022-10-31T21:46:18.652Z,10.35
2022-10-31T21:48:45.965Z,10.41
2022-10-31T21:51:18.432Z,10.36
2022-10-31T21:54:03.772Z,10.38
2022-10-31T21:56:31.105Z,10.36
2022-10-31T21:58:58.162Z,10.41
2022-10-31T22:01:29.551Z,10.38
2022-10-31T22:03:59.586Z,10.28
2022-10-31T22:06:30.499Z,10.29
2022-10-31T22:09:02.292Z,10.30
2022-10-31T22:11:29.431Z,10.24
2022-10-31T22:13:58.375Z,10.24
2022-10-31T22:16:26.113Z,10.30
2022-10-31T22:18:54.893Z,10.30
2022-10-31T22:21:26.440Z,10.26
2022-10-31T22:23:56.212Z,10.31
2022-10-31T22:26:22.995Z,10.32
2022-10-31T22:28:55.938Z,10.27
2022-10-31T22:31:24.371Z,10.31
2022-10-31T22:33:51.927Z,10.25
2022-10-31T22:36:21.305Z,10.20
2022-10-31T22:38:48.566Z,10.24
2022-10-31T22:41:23.199Z,10.28
2022-10-31T22:43:51.061Z,10.29
2022-10-31T22:46:24.899Z,10.28
2022-10-31T22:48:54.386Z,10.26
2022-10-31T22:51:23.970Z,10.33
2022-10-31T22:53:51.517Z,10.38
2022-10-31T22:56:21.013Z,10.43
2022-10-31T22:58:48.864Z,10.37
2022-10-31T23:01:22.686Z,10.34
2022-10-31T23:03:50.048Z,10.30
2022-10-31T23:06:22.604Z,10.29
2022-10-31T23:08:50.529Z,10.24
2022-10-31T23:11:35.441Z,10.26
2022-10-31T23:14:10.527Z,10.23
2022-10-31T23:16:57.715Z,10.15
2022-10-31T23:19:28.175Z,10.10
2022-10-31T23:22:02.146Z,10.13
2022-10-31T23:24:46.055Z,10.19
2022-10-31T23:27:21.644Z,10.21
2022-10-31T23:29:50.838Z,10.14
2022-10-31T23:32:28.753Z,10.16
2022-10-31T23:35:02.857Z,10.20
2022-10-31T23:37:32.192Z,10.20
2022-10-31T23:39:59.059Z,10.12
2022-10-31T23:42:27.291Z,10.10
2022-10-31T23:44:54.315Z,10.16
2022-10-31T23:47:22.052Z,10.17
2022-10-31T23:49:51.397Z,10.13
2022-10-31T23:52:18.691Z,10.17
2022-10-31T23:54:45.529Z,10.11
2022-10-31T23:57:14.124Z,10.07
2022-10-31T23:59:41.681Z,10.06
